Berta — V2BQ6 — position and weather

sailwx.info

Track history (hours):
 
Tides and Currents Weather Stations Pressure Air Temp Water Temp Dewpoint Dewpoint Depression Visibility Wind Speed Wind Dir Waves Ship Positions

Berta

Last reported at 2014-Oct-30 15:33 UTC. Time now 2014-Oct-30 16:04 UTC.
Position N 53°30' E 009°56'.

Length 107 m; draft 7.8 m.

Type: Cargo ship. MMSI: 304586000.

Date/timePositionNaut miles runAvg speedWind from/ knotsBaromVisibWave heightAir tempDewpointWater temp
2014-Oct-30 15:33N 53°30' E 009°56'0 0.0
2014-Oct-30 14:34N 53°30' E 009°56'0 0.0
2014-Oct-30 13:34N 53°30' E 009°56'0 0.0
2014-Oct-30 12:33N 53°30' E 009°56'0 0.0
2014-Oct-30 11:33N 53°30' E 009°56'0 0.0
2014-Oct-30 10:34N 53°30' E 009°56'0 0.0
2014-Oct-30 09:34N 53°30' E 009°56'2 2.1
2014-Oct-30 08:34N 53°32' E 009°55'0 0.0
2014-Oct-30 07:34N 53°32' E 009°55'0 0.0
2014-Oct-30 06:34N 53°32' E 009°55'0 0.0
2014-Oct-30 05:33N 53°32' E 009°55'0 0.0
2014-Oct-30 04:34N 53°32' E 009°55'0 0.0
2014-Oct-30 03:34N 53°32' E 009°55'0 0.0
2014-Oct-30 02:34N 53°32' E 009°55'6 6.4
2014-Oct-30 01:34N 53°34' E 009°45'1110.6
2014-Oct-30 00:34N 53°40' E 009°30'1111.3
2014-Oct-29 23:34N 53°50' E 009°21'1010.2
2014-Oct-29 22:34N 53°52' E 009°04'1010.1
2014-Oct-29 21:34N 53°50' E 008°47'10 9.8
2014-Oct-29 20:34N 53°58' E 008°36'1211.9
2014-Oct-29 19:33N 53°59' E 008°16'1212.1
2014-Oct-29 18:33N 54°02' E 007°56'1312.7
2014-Oct-29 17:33N 54°09' E 007°37'1212.4
2014-Oct-29 16:33N 54°20' E 007°27'1313.3
2014-Oct-29 15:33N 54°32' E 007°21'9913.4
2014-Oct-29 08:11N 56°09' E 006°43'812.6
2014-Oct-29 07:32N 56°17' E 006°41'10412.3
2014-Oct-28 23:04N 58°00' E 006°07'611.2
2014-Oct-28 22:33N 58°06' E 006°05'1110.9
2014-Oct-28 21:33N 58°16' E 006°02'1010.3
2014-Oct-28 20:33N 58°27' E 005°59'0 0.1
2014-Oct-28 19:33N 58°26' E 005°59'0 0.0
2014-Oct-28 18:33N 58°26' E 005°59'0 0.0
2014-Oct-28 17:33N 58°26' E 005°59'0 0.0
2014-Oct-28 16:33N 58°26' E 005°59'4 4.2
2014-Oct-28 15:33N 58°25' E 005°52'1111.4
2014-Oct-28 14:33N 58°32' E 005°36'1310.7
2014-Oct-28 13:22N 58°43' E 005°22'810.1
2014-Oct-28 12:33N 58°50' E 005°14'9 9.3
2014-Oct-28 11:33N 58°58' E 005°05'9 9.1
2014-Oct-28 10:32N 59°05' E 004°54'10 8.8
2014-Oct-28 09:26N 59°13' E 004°43'  
2014-Oct-23 16:33N 58°09' E 005°02'16513.6
2014-Oct-23 04:27N 55°34' E 006°47'1213.4
2014-Oct-23 03:33N 55°23' E 006°53'1313.4
2014-Oct-23 02:33N 55°10' E 006°60'1313.3
2014-Oct-23 01:33N 54°57' E 007°07'1313.3
2014-Oct-23 00:33N 54°44' E 007°14'1312.9
2014-Oct-22 23:33N 54°32' E 007°21'1312.5
2014-Oct-22 22:33N 54°20' E 007°28'1211.8
2014-Oct-22 21:33N 54°10' E 007°38'1111.4
2014-Oct-22 20:33N 54°05' E 007°55'1511.2
2014-Oct-22 19:12N 53°60' E 008°20'813.1
2014-Oct-22 18:34N 53°58' E 008°34'1414.1
2014-Oct-22 17:34N 53°51' E 008°54'1813.6
2014-Oct-22 16:13N 53°46' E 009°24'914.3
2014-Oct-22 15:33N 53°38' E 009°32'1212.2
2014-Oct-22 14:33N 53°33' E 009°51'4 3.9
2014-Oct-22 13:33N 53°31' E 009°56'0 0.0
2014-Oct-22 12:28N 53°31' E 009°56'0 0.0
2014-Oct-22 11:28N 53°31' E 009°56'0 0.0
2014-Oct-22 10:31N 53°31' E 009°56'0 0.0
2014-Oct-22 09:28N 53°31' E 009°56'0 0.0
2014-Oct-22 08:31N 53°31' E 009°56'0 0.0
2014-Oct-22 07:31N 53°31' E 009°56'0 0.0
2014-Oct-22 06:28N 53°31' E 009°56'0 0.0
2014-Oct-22 05:28N 53°31' E 009°56'1 0.9
2014-Oct-22 04:33N 53°31' E 009°56'1 1.5
2014-Oct-22 03:33N 53°32' E 009°54'0 0.0
2014-Oct-22 02:33N 53°32' E 009°54'0 0.0
2014-Oct-22 01:33N 53°32' E 009°54'0 0.0
2014-Oct-22 00:33N 53°32' E 009°54'0 0.0
2014-Oct-21 23:33N 53°32' E 009°54'0 0.0
2014-Oct-21 22:33N 53°32' E 009°54'0 0.0
2014-Oct-21 21:33N 53°32' E 009°54'0 0.0
2014-Oct-21 20:33N 53°32' E 009°54'0 0.0
2014-Oct-21 19:33N 53°32' E 009°54'0 0.2
2014-Oct-21 18:34N 53°32' E 009°55'2 2.3
2014-Oct-21 17:33N 53°31' E 009°58'0 0.0
2014-Oct-21 16:33N 53°31' E 009°58'0 0.0
2014-Oct-21 15:33N 53°31' E 009°58'2 2.1
2014-Oct-21 14:33N 53°32' E 009°55'9 8.9
2014-Oct-21 13:33N 53°34' E 009°40'1111.1
2014-Oct-21 12:33N 53°43' E 009°29'1313.2
2014-Oct-21 11:33N 53°53' E 009°14'1515.1
2014-Oct-21 10:33N 53°50' E 008°49'1414.0
2014-Oct-21 09:33N 53°58' E 008°29'1514.6
2014-Oct-21 08:34N 53°59' E 008°05'1313.0
2014-Oct-21 07:33N 54°06' E 007°46'1212.0
2014-Oct-21 06:33N 54°14' E 007°30'1212.4
2014-Oct-21 05:33N 54°26' E 007°24'1312.7
2014-Oct-21 04:33N 54°38' E 007°18'1212.3
2014-Oct-21 03:33N 54°50' E 007°12'1212.3
2014-Oct-21 02:33N 55°01' E 007°06'1212.0
2014-Oct-21 01:33N 55°13' E 006°60'1211.9
2014-Oct-21 00:33N 55°24' E 006°54'1212.3
2014-Oct-20 23:32N 55°36' E 006°48'  
Track history (hours):
 
Tides and Currents Weather Stations Pressure Air Temp Water Temp Dewpoint Dewpoint Depression Visibility Wind Speed Wind Dir Waves Ship Positions

Berta

Last reported at 2014-Oct-30 15:33 UTC. Time now 2014-Oct-30 16:04 UTC.
Position N 53°30' E 009°56'.

Length 107 m; draft 7.8 m.

Type: Cargo ship. MMSI: 304586000.

Date/timePositionNaut miles runAvg speedWind from/ knotsBaromVisibWave heightAir tempDewpointWater temp
2014-Oct-30 15:33N 53°30' E 009°56'0 0.0
2014-Oct-30 14:34N 53°30' E 009°56'0 0.0
2014-Oct-30 13:34N 53°30' E 009°56'0 0.0
2014-Oct-30 12:33N 53°30' E 009°56'0 0.0
2014-Oct-30 11:33N 53°30' E 009°56'0 0.0
2014-Oct-30 10:34N 53°30' E 009°56'0 0.0
2014-Oct-30 09:34N 53°30' E 009°56'2 2.1
2014-Oct-30 08:34N 53°32' E 009°55'0 0.0
2014-Oct-30 07:34N 53°32' E 009°55'0 0.0
2014-Oct-30 06:34N 53°32' E 009°55'0 0.0
2014-Oct-30 05:33N 53°32' E 009°55'0 0.0
2014-Oct-30 04:34N 53°32' E 009°55'0 0.0
2014-Oct-30 03:34N 53°32' E 009°55'0 0.0
2014-Oct-30 02:34N 53°32' E 009°55'6 6.4
2014-Oct-30 01:34N 53°34' E 009°45'1110.6
2014-Oct-30 00:34N 53°40' E 009°30'1111.3
2014-Oct-29 23:34N 53°50' E 009°21'1010.2
2014-Oct-29 22:34N 53°52' E 009°04'1010.1
2014-Oct-29 21:34N 53°50' E 008°47'10 9.8
2014-Oct-29 20:34N 53°58' E 008°36'1211.9
2014-Oct-29 19:33N 53°59' E 008°16'1212.1
2014-Oct-29 18:33N 54°02' E 007°56'1312.7
2014-Oct-29 17:33N 54°09' E 007°37'1212.4
2014-Oct-29 16:33N 54°20' E 007°27'1313.3
2014-Oct-29 15:33N 54°32' E 007°21'9913.4
2014-Oct-29 08:11N 56°09' E 006°43'812.6
2014-Oct-29 07:32N 56°17' E 006°41'10412.3
2014-Oct-28 23:04N 58°00' E 006°07'611.2
2014-Oct-28 22:33N 58°06' E 006°05'1110.9
2014-Oct-28 21:33N 58°16' E 006°02'1010.3
2014-Oct-28 20:33N 58°27' E 005°59'0 0.1
2014-Oct-28 19:33N 58°26' E 005°59'0 0.0
2014-Oct-28 18:33N 58°26' E 005°59'0 0.0
2014-Oct-28 17:33N 58°26' E 005°59'0 0.0
2014-Oct-28 16:33N 58°26' E 005°59'4 4.2
2014-Oct-28 15:33N 58°25' E 005°52'1111.4
2014-Oct-28 14:33N 58°32' E 005°36'1310.7
2014-Oct-28 13:22N 58°43' E 005°22'810.1
2014-Oct-28 12:33N 58°50' E 005°14'9 9.3
2014-Oct-28 11:33N 58°58' E 005°05'9 9.1
2014-Oct-28 10:32N 59°05' E 004°54'10 8.8
2014-Oct-28 09:26N 59°13' E 004°43'  
2014-Oct-23 16:33N 58°09' E 005°02'16513.6
2014-Oct-23 04:27N 55°34' E 006°47'1213.4
2014-Oct-23 03:33N 55°23' E 006°53'1313.4
2014-Oct-23 02:33N 55°10' E 006°60'1313.3
2014-Oct-23 01:33N 54°57' E 007°07'1313.3
2014-Oct-23 00:33N 54°44' E 007°14'1312.9
2014-Oct-22 23:33N 54°32' E 007°21'1312.5
2014-Oct-22 22:33N 54°20' E 007°28'1211.8
2014-Oct-22 21:33N 54°10' E 007°38'1111.4
2014-Oct-22 20:33N 54°05' E 007°55'1511.2
2014-Oct-22 19:12N 53°60' E 008°20'813.1
2014-Oct-22 18:34N 53°58' E 008°34'1414.1
2014-Oct-22 17:34N 53°51' E 008°54'1813.6
2014-Oct-22 16:13N 53°46' E 009°24'914.3
2014-Oct-22 15:33N 53°38' E 009°32'1212.2
2014-Oct-22 14:33N 53°33' E 009°51'4 3.9
2014-Oct-22 13:33N 53°31' E 009°56'0 0.0
2014-Oct-22 12:28N 53°31' E 009°56'0 0.0
2014-Oct-22 11:28N 53°31' E 009°56'0 0.0
2014-Oct-22 10:31N 53°31' E 009°56'0 0.0
2014-Oct-22 09:28N 53°31' E 009°56'0 0.0
2014-Oct-22 08:31N 53°31' E 009°56'0 0.0
2014-Oct-22 07:31N 53°31' E 009°56'0 0.0
2014-Oct-22 06:28N 53°31' E 009°56'0 0.0
2014-Oct-22 05:28N 53°31' E 009°56'1 0.9
2014-Oct-22 04:33N 53°31' E 009°56'1 1.5
2014-Oct-22 03:33N 53°32' E 009°54'0 0.0
2014-Oct-22 02:33N 53°32' E 009°54'0 0.0
2014-Oct-22 01:33N 53°32' E 009°54'0 0.0
2014-Oct-22 00:33N 53°32' E 009°54'0 0.0
2014-Oct-21 23:33N 53°32' E 009°54'0 0.0
2014-Oct-21 22:33N 53°32' E 009°54'0 0.0
2014-Oct-21 21:33N 53°32' E 009°54'0 0.0
2014-Oct-21 20:33N 53°32' E 009°54'0 0.0
2014-Oct-21 19:33N 53°32' E 009°54'0 0.2
2014-Oct-21 18:34N 53°32' E 009°55'2 2.3
2014-Oct-21 17:33N 53°31' E 009°58'0 0.0
2014-Oct-21 16:33N 53°31' E 009°58'0 0.0
2014-Oct-21 15:33N 53°31' E 009°58'2 2.1
2014-Oct-21 14:33N 53°32' E 009°55'9 8.9
2014-Oct-21 13:33N 53°34' E 009°40'1111.1
2014-Oct-21 12:33N 53°43' E 009°29'1313.2
2014-Oct-21 11:33N 53°53' E 009°14'1515.1
2014-Oct-21 10:33N 53°50' E 008°49'1414.0
2014-Oct-21 09:33N 53°58' E 008°29'1514.6
2014-Oct-21 08:34N 53°59' E 008°05'1313.0
2014-Oct-21 07:33N 54°06' E 007°46'1212.0
2014-Oct-21 06:33N 54°14' E 007°30'1212.4
2014-Oct-21 05:33N 54°26' E 007°24'1312.7
2014-Oct-21 04:33N 54°38' E 007°18'1212.3
2014-Oct-21 03:33N 54°50' E 007°12'1212.3
2014-Oct-21 02:33N 55°01' E 007°06'1212.0
2014-Oct-21 01:33N 55°13' E 006°60'1211.9
2014-Oct-21 00:33N 55°24' E 006°54'1212.3
2014-Oct-20 23:32N 55°36' E 006°48'  

Dump ship's entire track history